createdAt,value
2023-03-07T00:02:11.099Z,4.40
2023-03-07T00:07:18.451Z,4.50
2023-03-07T00:09:48.316Z,4.50
2023-03-07T00:12:20.869Z,4.50
2023-03-07T00:14:52.255Z,4.50
2023-03-07T00:17:27.397Z,4.60
2023-03-07T00:19:59.650Z,4.50
2023-03-07T00:22:29.237Z,4.50
2023-03-07T00:25:00.545Z,4.50
2023-03-07T00:27:36.359Z,4.60
2023-03-07T00:30:09.876Z,4.50
2023-03-07T00:32:42.919Z,4.50
2023-03-07T00:35:15.709Z,4.50
2023-03-07T00:37:44.830Z,4.50
2023-03-07T00:40:17.111Z,4.50
2023-03-07T00:42:49.153Z,4.50
2023-03-07T00:45:19.129Z,4.50
2023-03-07T00:47:53.980Z,4.50
2023-03-07T00:50:26.162Z,4.50
2023-03-07T00:52:55.670Z,4.50
2023-03-07T00:55:30.213Z,4.50
2023-03-07T00:58:02.945Z,4.50
2023-03-07T01:00:33.875Z,4.50
2023-03-07T01:03:14.565Z,4.60
2023-03-07T01:05:45.864Z,4.60
2023-03-07T01:08:15.716Z,4.60
2023-03-07T01:10:48.819Z,4.70
2023-03-07T01:13:20.641Z,4.60
2023-03-07T01:15:51.841Z,4.60
2023-03-07T01:18:22.801Z,4.60
2023-03-07T01:20:51.907Z,4.70
2023-03-07T01:23:23.631Z,4.60
2023-03-07T01:25:52.476Z,4.60
2023-03-07T01:28:22.744Z,4.70
2023-03-07T01:31:01.831Z,4.70
2023-03-07T01:33:33.844Z,4.70
2023-03-07T01:36:06.181Z,4.60
2023-03-07T01:38:40.624Z,4.70
2023-03-07T01:41:15.466Z,4.60
2023-03-07T01:43:45.981Z,4.60
2023-03-07T01:46:42.736Z,4.60
2023-03-07T01:49:26.192Z,4.50
2023-03-07T01:52:08.759Z,4.50
2023-03-07T01:55:01.659Z,4.40
2023-03-07T01:57:34.440Z,4.40
2023-03-07T02:00:11.003Z,4.40
2023-03-07T02:02:43.661Z,4.30
2023-03-07T02:05:20.559Z,4.30
2023-03-07T02:07:54.110Z,4.30
2023-03-07T02:10:25.698Z,4.20
2023-03-07T02:12:56.871Z,4.20
2023-03-07T02:15:27.521Z,4.10
2023-03-07T02:18:02.165Z,4.10
2023-03-07T02:20:41.792Z,4.10
2023-03-07T02:23:16.812Z,4.10
2023-03-07T02:25:56.491Z,4.10
2023-03-07T02:28:36.121Z,4.10
2023-03-07T02:31:13.488Z,4.10
2023-03-07T02:33:51.249Z,4.10
2023-03-07T02:36:24.988Z,4.10
2023-03-07T02:38:59.210Z,4.10
2023-03-07T02:41:33.504Z,4.10
2023-03-07T02:44:03.916Z,4.10
2023-03-07T02:46:37.738Z,4.10
2023-03-07T02:49:08.391Z,4.10
2023-03-07T02:51:37.513Z,4.10
2023-03-07T02:54:12.443Z,4.00
2023-03-07T02:56:46.655Z,4.10
2023-03-07T02:59:24.175Z,4.00
2023-03-07T03:01:53.478Z,4.10
2023-03-07T03:04:25.867Z,4.10
2023-03-07T03:06:59.479Z,4.00
2023-03-07T03:09:35.403Z,4.00
2023-03-07T03:12:08.013Z,4.00
2023-03-07T03:14:54.364Z,3.90
2023-03-07T03:17:26.348Z,3.90
2023-03-07T03:20:07.427Z,3.90
2023-03-07T03:22:49.174Z,3.90
2023-03-07T03:25:18.557Z,3.90
2023-03-07T03:27:51.361Z,3.90
2023-03-07T03:30:26.870Z,3.90
2023-03-07T03:32:58.321Z,3.90
2023-03-07T03:35:36.012Z,3.90
2023-03-07T03:38:09.917Z,3.90
2023-03-07T03:40:47.288Z,3.90
2023-03-07T03:43:25.448Z,3.90
2023-03-07T03:46:00.120Z,3.80
2023-03-07T03:48:29.919Z,3.80
2023-03-07T03:51:10.506Z,3.80
2023-03-07T03:53:42.352Z,3.80
2023-03-07T03:56:15.848Z,3.80
2023-03-07T03:58:49.006Z,3.80
2023-03-07T04:01:26.942Z,3.80
2023-03-07T04:04:00.446Z,3.90
2023-03-07T04:06:31.210Z,3.80
2023-03-07T04:09:00.933Z,3.80
2023-03-07T04:11:39.456Z,3.90
2023-03-07T04:14:11.146Z,3.90
2023-03-07T04:16:42.262Z,3.90
2023-03-07T04:19:16.474Z,3.90
2023-03-07T04:21:47.368Z,3.90
2023-03-07T04:24:18.638Z,3.90
2023-03-07T04:26:47.947Z,3.90
2023-03-07T04:29:27.956Z,3.90
2023-03-07T04:32:07.783Z,3.90
2023-03-07T04:34:39.049Z,3.90
2023-03-07T04:37:16.687Z,4.00
2023-03-07T04:39:50.667Z,4.00
2023-03-07T04:42:24.089Z,4.00
2023-03-07T04:44:53.569Z,4.00
2023-03-07T04:47:23.987Z,4.00
2023-03-07T04:49:53.272Z,4.00
2023-03-07T04:52:26.642Z,4.00
2023-03-07T04:55:00.500Z,4.10
2023-03-07T04:57:32.878Z,4.00
2023-03-07T05:00:05.382Z,4.00
2023-03-07T05:02:43.832Z,4.00
2023-03-07T05:05:16.406Z,4.00
2023-03-07T05:07:52.790Z,4.00
2023-03-07T05:10:21.917Z,4.00
2023-03-07T05:12:54.265Z,4.00
2023-03-07T05:15:25.422Z,4.00
2023-03-07T05:18:06.544Z,4.00
2023-03-07T05:20:37.191Z,3.90
2023-03-07T05:23:10.703Z,3.90
2023-03-07T05:25:40.240Z,3.90
2023-03-07T05:28:18.026Z,3.90
2023-03-07T05:30:49.658Z,3.90
2023-03-07T05:33:26.198Z,3.90
2023-03-07T05:36:02.875Z,3.90
2023-03-07T05:38:39.520Z,4.00
2023-03-07T05:41:17.598Z,4.00
2023-03-07T05:43:47.096Z,3.90
2023-03-07T05:46:16.068Z,3.90
2023-03-07T05:48:48.072Z,3.80
2023-03-07T05:51:18.868Z,3.80
2023-03-07T05:53:47.813Z,3.70
2023-03-07T05:56:16.513Z,3.40
2023-03-07T05:58:47.144Z,3.20
2023-03-07T06:01:16.061Z,3.10
2023-03-07T06:03:53.100Z,3.10
2023-03-07T06:06:22.199Z,3.10
2023-03-07T06:08:51.111Z,3.10
2023-03-07T06:11:19.935Z,3.00
2023-03-07T06:13:48.758Z,3.00
2023-03-07T06:16:20.498Z,3.10
2023-03-07T06:18:57.307Z,3.00
2023-03-07T06:21:35.170Z,3.00
2023-03-07T06:24:07.374Z,3.00
2023-03-07T06:26:36.834Z,2.90
2023-03-07T06:29:06.150Z,2.90
2023-03-07T06:31:35.759Z,2.90
2023-03-07T06:34:05.926Z,2.90
2023-03-07T06:36:34.853Z,2.90
2023-03-07T06:39:06.346Z,2.90
2023-03-07T06:41:36.883Z,2.80
2023-03-07T06:44:05.726Z,2.80
2023-03-07T06:46:37.326Z,2.80
2023-03-07T06:49:07.809Z,2.80
2023-03-07T06:51:38.812Z,2.70
2023-03-07T06:54:17.335Z,2.70
2023-03-07T06:56:46.411Z,2.70
2023-03-07T06:59:29.754Z,2.70
2023-03-07T07:01:58.886Z,2.70
2023-03-07T07:04:32.789Z,2.60
2023-03-07T07:07:01.707Z,2.50
2023-03-07T07:09:30.414Z,2.40
2023-03-07T07:11:59.187Z,2.40
2023-03-07T07:14:31.090Z,2.40
2023-03-07T07:17:00.165Z,2.30
2023-03-07T07:19:30.576Z,2.40
2023-03-07T07:21:59.341Z,2.40
2023-03-07T07:24:29.073Z,2.30
2023-03-07T07:26:57.771Z,2.30
2023-03-07T07:29:26.757Z,2.30
2023-03-07T07:31:55.865Z,2.30
2023-03-07T07:34:25.070Z,2.20
2023-03-07T07:36:56.815Z,2.10
2023-03-07T07:39:28.875Z,2.20
2023-03-07T07:41:59.855Z,2.20
2023-03-07T07:44:33.064Z,2.10
2023-03-07T07:47:03.066Z,2.10
2023-03-07T07:49:31.980Z,2.10
2023-03-07T07:52:02.701Z,2.10
2023-03-07T07:54:32.272Z,2.20
2023-03-07T07:57:01.274Z,2.30
2023-03-07T07:59:32.163Z,2.30
2023-03-07T08:02:01.834Z,2.40
2023-03-07T08:04:31.373Z,2.40
2023-03-07T08:07:01.952Z,2.50
2023-03-07T08:09:35.769Z,2.50
2023-03-07T08:12:05.276Z,2.50
2023-03-07T08:14:35.451Z,2.60
2023-03-07T08:17:04.381Z,2.70
2023-03-07T08:19:33.524Z,2.70
2023-03-07T08:22:04.449Z,2.70
2023-03-07T08:24:40.850Z,2.80
2023-03-07T08:27:10.280Z,2.80
2023-03-07T08:29:39.028Z,2.90
2023-03-07T08:32:10.436Z,2.80
2023-03-07T08:34:40.760Z,2.80
2023-03-07T08:37:13.523Z,2.90
2023-03-07T08:39:44.928Z,2.90
2023-03-07T08:42:16.697Z,2.90
2023-03-07T08:44:49.638Z,3.10
2023-03-07T08:47:18.853Z,3.10
2023-03-07T08:49:49.694Z,3.20
2023-03-07T08:52:25.110Z,3.20
2023-03-07T08:54:55.577Z,3.30
2023-03-07T08:57:24.355Z,3.30
2023-03-07T08:59:53.160Z,3.40
2023-03-07T09:02:22.685Z,3.40
2023-03-07T09:04:57.290Z,3.30
2023-03-07T09:07:28.556Z,3.20
2023-03-07T09:09:57.355Z,3.30
2023-03-07T09:12:26.003Z,3.40
2023-03-07T09:14:55.753Z,3.40
2023-03-07T09:17:28.732Z,3.50
2023-03-07T09:19:57.676Z,3.50
2023-03-07T09:22:28.452Z,3.60
2023-03-07T09:24:57.154Z,3.60
2023-03-07T09:27:26.082Z,3.60
2023-03-07T09:29:55.090Z,3.60
2023-03-07T09:32:23.945Z,3.60
2023-03-07T09:34:54.128Z,3.70
2023-03-07T09:37:22.941Z,3.80
2023-03-07T09:39:53.000Z,3.90
2023-03-07T09:42:27.551Z,4.10
2023-03-07T09:45:30.881Z,4.10
2023-03-07T09:48:53.945Z,4.10
2023-03-07T09:51:26.406Z,4.10
2023-03-07T09:53:59.011Z,4.20
2023-03-07T09:56:34.298Z,4.20
2023-03-07T09:59:22.007Z,4.20
2023-03-07T10:01:56.693Z,4.20
2023-03-07T10:04:33.414Z,4.00
2023-03-07T10:07:05.273Z,3.80
2023-03-07T10:09:34.694Z,3.70
2023-03-07T10:12:25.615Z,3.80
2023-03-07T10:15:12.854Z,3.90
2023-03-07T10:17:52.702Z,4.10
2023-03-07T10:20:26.496Z,4.20
2023-03-07T10:23:02.164Z,4.20
2023-03-07T10:25:37.202Z,4.20
2023-03-07T10:28:20.192Z,4.10
2023-03-07T10:30:51.291Z,4.10
2023-03-07T10:33:21.236Z,4.20
2023-03-07T10:35:56.447Z,4.10
2023-03-07T10:38:33.078Z,4.20
2023-03-07T10:41:06.529Z,4.30
2023-03-07T10:43:41.178Z,4.30
2023-03-07T10:46:24.696Z,4.40
2023-03-07T10:48:56.738Z,4.50
2023-03-07T10:51:39.045Z,4.60
2023-03-07T10:54:15.094Z,4.70
2023-03-07T10:57:05.563Z,4.90
2023-03-07T10:59:35.957Z,4.80
2023-03-07T11:02:26.490Z,4.70
2023-03-07T11:04:56.027Z,4.80
2023-03-07T11:07:28.642Z,4.70
2023-03-07T11:09:57.856Z,4.80
2023-03-07T11:12:29.180Z,4.90
2023-03-07T11:15:12.975Z,4.90
2023-03-07T11:17:44.098Z,4.70
2023-03-07T11:20:24.374Z,4.60
2023-03-07T11:23:14.667Z,4.60
2023-03-07T11:25:43.385Z,4.50
2023-03-07T11:28:27.400Z,4.60
2023-03-07T11:31:03.129Z,4.60
2023-03-07T11:33:58.581Z,4.60
2023-03-07T11:36:33.368Z,4.60
2023-03-07T11:39:08.395Z,4.80
2023-03-07T11:41:38.918Z,4.80
2023-03-07T11:44:20.177Z,4.80
2023-03-07T11:47:14.316Z,4.70
2023-03-07T11:49:47.692Z,4.60
2023-03-07T11:52:34.291Z,4.40
2023-03-07T11:55:16.458Z,4.10
2023-03-07T11:57:58.632Z,3.90
2023-03-07T12:00:33.597Z,3.70
2023-03-07T12:03:42.420Z,3.60
2023-03-07T12:06:27.789Z,3.60
2023-03-07T12:09:09.386Z,3.60
2023-03-07T12:11:54.083Z,3.70
2023-03-07T12:14:33.697Z,3.80
2023-03-07T12:17:14.458Z,3.90
2023-03-07T12:20:08.582Z,4.00
2023-03-07T12:22:45.071Z,3.80
2023-03-07T12:25:24.814Z,3.70
2023-03-07T12:28:05.398Z,3.60
2023-03-07T12:30:41.805Z,3.50
2023-03-07T12:33:18.799Z,3.40
2023-03-07T12:35:54.669Z,3.50
2023-03-07T12:38:36.170Z,3.40
2023-03-07T12:41:15.603Z,3.60
2023-03-07T12:43:48.148Z,3.70
2023-03-07T12:46:33.845Z,3.80
2023-03-07T12:49:11.979Z,3.70
2023-03-07T12:51:46.744Z,3.70
2023-03-07T12:54:20.359Z,3.70
2023-03-07T12:56:55.547Z,3.80
2023-03-07T12:59:24.713Z,3.90
2023-03-07T13:02:01.543Z,4.10
2023-03-07T13:04:34.893Z,4.30
2023-03-07T13:07:10.446Z,4.30
2023-03-07T13:09:42.102Z,4.30
2023-03-07T13:12:25.582Z,4.30
2023-03-07T13:14:56.003Z,4.50
2023-03-07T13:18:04.137Z,4.70
2023-03-07T13:20:44.644Z,5.00
2023-03-07T13:23:26.537Z,5.40
2023-03-07T13:26:04.359Z,5.30
2023-03-07T13:28:48.791Z,5.30
2023-03-07T13:31:51.540Z,5.40
2023-03-07T13:34:53.074Z,5.50
2023-03-07T13:37:53.145Z,5.60
2023-03-07T13:40:48.474Z,5.60
2023-03-07T13:43:57.468Z,5.80
2023-03-07T13:46:48.022Z,5.80
2023-03-07T13:49:42.729Z,5.50
2023-03-07T13:52:36.744Z,5.40
2023-03-07T13:55:20.540Z,5.40
2023-03-07T13:57:51.351Z,5.40
2023-03-07T14:00:37.258Z,5.20
2023-03-07T14:03:27.601Z,5.00
2023-03-07T14:05:59.299Z,4.90
2023-03-07T14:08:34.218Z,5.10
2023-03-07T14:11:03.337Z,4.80
2023-03-07T14:13:50.118Z,4.60
2023-03-07T14:16:34.308Z,4.50
2023-03-07T14:19:12.659Z,4.40
2023-03-07T14:21:53.232Z,4.40
2023-03-07T14:24:39.640Z,4.30
2023-03-07T14:27:14.051Z,4.00
2023-03-07T14:29:52.077Z,3.80
2023-03-07T14:32:26.141Z,3.40
2023-03-07T14:34:55.148Z,3.10
2023-03-07T14:37:26.468Z,3.00
2023-03-07T14:40:20.731Z,3.00
2023-03-07T14:42:59.281Z,3.00
2023-03-07T14:45:37.713Z,2.90
2023-03-07T14:48:38.485Z,2.90
2023-03-07T14:51:16.183Z,2.80
2023-03-07T14:53:45.373Z,2.90
2023-03-07T14:56:22.956Z,2.90
2023-03-07T14:58:55.191Z,2.90
2023-03-07T15:01:31.782Z,2.90
2023-03-07T15:04:00.658Z,2.90
2023-03-07T15:06:31.523Z,2.90
2023-03-07T15:09:01.373Z,2.80
2023-03-07T15:11:37.120Z,2.60
2023-03-07T15:14:09.118Z,2.30
2023-03-07T15:16:44.973Z,2.30
2023-03-07T15:19:19.300Z,2.30
2023-03-07T15:21:52.172Z,2.50
2023-03-07T15:24:25.103Z,2.50
2023-03-07T15:26:55.918Z,2.60
2023-03-07T15:29:27.031Z,2.60
2023-03-07T15:32:01.457Z,2.60
2023-03-07T15:34:33.658Z,2.60
2023-03-07T15:37:26.849Z,2.60
2023-03-07T15:39:59.527Z,2.60
2023-03-07T15:42:28.601Z,2.50
2023-03-07T15:44:58.673Z,2.50
2023-03-07T15:47:32.019Z,2.50
2023-03-07T15:50:02.416Z,2.60
2023-03-07T15:52:34.899Z,2.60
2023-03-07T15:55:08.193Z,2.60
2023-03-07T15:57:41.466Z,2.50
2023-03-07T16:00:18.687Z,2.60
2023-03-07T16:02:49.791Z,2.60
2023-03-07T16:05:33.037Z,2.70
2023-03-07T16:08:01.814Z,2.70
2023-03-07T16:10:32.978Z,2.70
2023-03-07T16:13:02.772Z,2.70
2023-03-07T16:15:31.577Z,2.70
2023-03-07T16:18:01.630Z,2.70
2023-03-07T16:20:30.633Z,2.70
2023-03-07T16:23:00.009Z,2.70
2023-03-07T16:25:32.147Z,2.70
2023-03-07T16:28:01.295Z,2.70
2023-03-07T16:30:33.414Z,2.70
2023-03-07T16:33:03.483Z,2.70
2023-03-07T16:35:32.346Z,2.70
2023-03-07T16:38:01.527Z,2.60
2023-03-07T16:40:30.468Z,2.60
2023-03-07T16:42:59.249Z,2.60
2023-03-07T16:45:30.103Z,2.60
2023-03-07T16:48:00.411Z,2.60
2023-03-07T16:50:33.493Z,2.60
2023-03-07T16:53:02.256Z,2.50
2023-03-07T16:55:30.904Z,2.50
2023-03-07T16:58:02.951Z,2.50
2023-03-07T17:00:32.826Z,2.50
2023-03-07T17:03:03.799Z,2.50
2023-03-07T17:05:33.923Z,2.50
2023-03-07T17:08:02.652Z,2.50
2023-03-07T17:10:33.421Z,2.50
2023-03-07T17:13:03.187Z,2.60
2023-03-07T17:15:33.122Z,2.60
2023-03-07T17:18:02.303Z,2.60
2023-03-07T17:20:31.875Z,2.60
2023-03-07T17:23:02.057Z,2.60
2023-03-07T17:25:30.929Z,2.70
2023-03-07T17:28:02.436Z,2.70
2023-03-07T17:30:33.063Z,2.60
2023-03-07T17:33:02.147Z,2.50
2023-03-07T17:35:31.577Z,2.40
2023-03-07T17:38:01.622Z,2.30
2023-03-07T17:40:30.337Z,2.20
2023-03-07T17:42:59.467Z,2.10
2023-03-07T17:45:29.184Z,2.00
2023-03-07T17:47:58.166Z,1.90
2023-03-07T17:50:27.434Z,1.90
2023-03-07T17:52:56.797Z,1.90
2023-03-07T17:55:26.843Z,1.80
2023-03-07T17:57:55.743Z,1.90
2023-03-07T18:00:28.051Z,2.00
2023-03-07T18:02:57.011Z,2.00
2023-03-07T18:05:26.216Z,2.00
2023-03-07T18:07:55.336Z,1.90
2023-03-07T18:10:24.755Z,1.90
2023-03-07T18:12:55.131Z,1.80
2023-03-07T18:15:32.869Z,1.60
2023-03-07T18:18:06.978Z,1.50
2023-03-07T18:20:37.197Z,1.40
2023-03-07T18:23:06.077Z,1.50
2023-03-07T18:25:34.979Z,1.60
2023-03-07T18:28:05.241Z,1.60
2023-03-07T18:30:34.209Z,1.70
2023-03-07T18:33:02.988Z,1.80
2023-03-07T18:35:37.797Z,1.80
2023-03-07T18:38:06.444Z,1.80
2023-03-07T18:40:35.104Z,1.70
2023-03-07T18:43:05.189Z,1.70
2023-03-07T18:45:33.962Z,1.60
2023-03-07T18:48:02.690Z,1.40
2023-03-07T18:50:31.439Z,1.30
2023-03-07T18:53:00.280Z,1.30
2023-03-07T18:55:29.265Z,1.20
2023-03-07T18:57:58.146Z,1.10
2023-03-07T19:00:32.571Z,1.10
2023-03-07T19:03:01.384Z,1.00
2023-03-07T19:05:30.148Z,0.90
2023-03-07T19:07:59.101Z,0.90
2023-03-07T19:10:29.775Z,0.80
2023-03-07T19:13:02.725Z,0.80
2023-03-07T19:15:36.371Z,0.80
2023-03-07T19:18:07.865Z,0.70
2023-03-07T19:20:38.648Z,0.70
2023-03-07T19:23:08.828Z,0.60
2023-03-07T19:25:40.233Z,0.60
2023-03-07T19:28:13.569Z,0.60
2023-03-07T19:30:44.493Z,0.60
2023-03-07T19:33:14.866Z,0.60
2023-03-07T19:35:47.474Z,0.60
2023-03-07T19:38:19.764Z,0.50
2023-03-07T19:40:52.156Z,0.50
2023-03-07T19:43:24.181Z,0.40
2023-03-07T19:46:03.320Z,0.40
2023-03-07T19:48:40.904Z,0.30
2023-03-07T19:51:15.454Z,0.40
2023-03-07T19:53:57.191Z,0.40
2023-03-07T19:56:31.414Z,0.40
2023-03-07T19:59:03.759Z,0.30
2023-03-07T20:01:37.103Z,0.40
2023-03-07T20:04:08.052Z,0.30
2023-03-07T20:06:37.094Z,0.30
2023-03-07T20:09:08.638Z,0.30
2023-03-07T20:11:47.796Z,0.20
2023-03-07T20:14:17.744Z,0.20
2023-03-07T20:16:48.340Z,0.20
2023-03-07T20:19:20.974Z,0.20
2023-03-07T20:21:50.799Z,0.20
2023-03-07T20:24:20.382Z,0.20
2023-03-07T20:26:50.710Z,0.10
2023-03-07T20:29:19.708Z,0.10
2023-03-07T20:31:52.994Z,0.10
2023-03-07T20:34:25.492Z,0.10
2023-03-07T20:36:57.996Z,0.20
2023-03-07T20:39:26.918Z,0.00
2023-03-07T20:42:00.647Z,0.10
2023-03-07T20:44:29.482Z,0.20
2023-03-07T20:47:01.608Z,0.40
2023-03-07T20:49:33.738Z,0.30
2023-03-07T20:52:02.757Z,0.30
2023-03-07T20:54:33.464Z,0.30
2023-03-07T20:57:05.635Z,0.30
2023-03-07T20:59:35.102Z,0.40
2023-03-07T21:02:07.695Z,0.40
2023-03-07T21:04:40.990Z,0.30
2023-03-07T21:07:10.851Z,0.30
2023-03-07T21:09:40.397Z,0.30
2023-03-07T21:12:14.045Z,0.20
2023-03-07T21:17:31.813Z,0.10
2023-03-07T21:20:05.926Z,0.10
2023-03-07T21:22:37.377Z,0.10
2023-03-07T21:25:17.149Z,0.00
2023-03-07T21:27:53.770Z,0.00
2023-03-07T21:30:23.673Z,0.10
2023-03-07T21:32:59.255Z,0.00
2023-03-07T21:35:31.132Z,0.00
2023-03-07T21:38:10.334Z,0.00
2023-03-07T21:40:39.917Z,-0.10
2023-03-07T21:43:11.894Z,-0.10
2023-03-07T21:45:41.236Z,-0.20
2023-03-07T21:48:12.428Z,-0.20
2023-03-07T21:50:44.418Z,-0.30
2023-03-07T21:53:29.567Z,-0.30
2023-03-07T21:56:01.720Z,-0.30
2023-03-07T21:58:47.120Z,-0.30
2023-03-07T22:01:19.211Z,-0.40
2023-03-07T22:03:55.281Z,-0.40
2023-03-07T22:06:27.725Z,-0.40
2023-03-07T22:09:01.053Z,-0.40
2023-03-07T22:11:33.874Z,-0.40
2023-03-07T22:14:08.011Z,-0.40
2023-03-07T22:16:37.568Z,-0.40
2023-03-07T22:19:13.385Z,-0.40
2023-03-07T22:21:44.853Z,-0.40
2023-03-07T22:24:19.442Z,-0.40
2023-03-07T22:26:52.974Z,-0.40
2023-03-07T22:29:27.993Z,-0.50
2023-03-07T22:32:00.572Z,-0.50
2023-03-07T22:34:39.803Z,-0.50
2023-03-07T22:37:16.333Z,-0.50
2023-03-07T22:39:51.990Z,-0.50
2023-03-07T22:42:21.177Z,-0.40
2023-03-07T22:44:58.371Z,-0.50
2023-03-07T22:47:30.005Z,-0.50
2023-03-07T22:50:00.634Z,-0.50
2023-03-07T22:52:31.806Z,-0.50
2023-03-07T22:55:01.448Z,-0.50
2023-03-07T22:57:32.867Z,-0.50
2023-03-07T23:00:12.314Z,-0.50
2023-03-07T23:02:47.003Z,-0.50
2023-03-07T23:05:18.331Z,-0.50
2023-03-07T23:07:55.682Z,-0.40
2023-03-07T23:10:24.859Z,-0.40
2023-03-07T23:13:05.694Z,-0.40
2023-03-07T23:15:40.843Z,-0.40
2023-03-07T23:18:10.370Z,-0.40
2023-03-07T23:23:28.204Z,-0.30
2023-03-07T23:26:02.742Z,-0.40
2023-03-07T23:28:44.673Z,-0.40
2023-03-07T23:31:24.254Z,-0.50
2023-03-07T23:33:58.642Z,-0.50
2023-03-07T23:36:33.418Z,-0.60
2023-03-07T23:39:02.856Z,-0.60
2023-03-07T23:41:35.246Z,-0.60
2023-03-07T23:44:06.693Z,-0.60
2023-03-07T23:46:36.525Z,-0.70
2023-03-07T23:49:08.359Z,-0.70
2023-03-07T23:51:38.894Z,-0.70
2023-03-07T23:54:07.925Z,-0.70
2023-03-07T23:56:37.166Z,-0.80
2023-03-07T23:59:08.543Z,-0.70
